createdAt,value
2022-12-08T00:02:03.960Z,100230.86
2022-12-08T00:07:29.032Z,100226.85
2022-12-08T00:12:34.408Z,100222.85
2022-12-08T00:17:39.786Z,100226.85
2022-12-08T00:22:45.239Z,100233.61
2022-12-08T00:27:50.630Z,100224.48
2022-12-08T00:32:56.082Z,100232.67
2022-12-08T00:38:01.480Z,100234.66
2022-12-08T00:43:07.125Z,100237.84
2022-12-08T00:48:13.660Z,100233.47
2022-12-08T00:53:19.105Z,100234.06
2022-12-08T00:58:24.482Z,100237.06
2022-12-08T01:03:29.992Z,100231.79
2022-12-08T01:08:37.631Z,100235.47
2022-12-08T01:13:44.145Z,100237.60
2022-12-08T01:18:49.588Z,100233.92
2022-12-08T01:23:55.578Z,100236.11
2022-12-08T01:29:01.027Z,100231.59
2022-12-08T01:34:07.242Z,100225.45
2022-12-08T01:39:17.771Z,100225.24
2022-12-08T01:44:26.272Z,100214.56
2022-12-08T01:49:37.390Z,100218.47
2022-12-08T01:54:45.814Z,100212.02
2022-12-08T01:59:54.229Z,100215.56
2022-12-08T02:04:59.706Z,100211.66
2022-12-08T02:10:06.344Z,100208.52
2022-12-08T02:15:12.448Z,100210.20
2022-12-08T02:20:26.947Z,100200.84
2022-12-08T02:25:40.649Z,100206.97
2022-12-08T02:31:08.291Z,100195.88
2022-12-08T02:36:17.006Z,100195.84
2022-12-08T02:41:34.259Z,100192.57
2022-12-08T02:46:48.167Z,100193.44
2022-12-08T02:51:53.900Z,100194.39
2022-12-08T02:57:11.223Z,100193.34
2022-12-08T03:02:19.827Z,100189.61
2022-12-08T03:07:43.675Z,100189.11
2022-12-08T03:13:07.045Z,100183.25
2022-12-08T03:18:14.504Z,100184.57
2022-12-08T03:23:22.146Z,100181.42
2022-12-08T03:28:27.968Z,100173.92
2022-12-08T03:33:36.530Z,100168.50
2022-12-08T03:38:43.950Z,100171.81
2022-12-08T03:43:51.814Z,100163.39
2022-12-08T03:48:57.582Z,100170.48
2022-12-08T03:54:02.957Z,100166.40
2022-12-08T03:59:08.876Z,100161.64
2022-12-08T04:04:14.389Z,100159.53
2022-12-08T04:09:19.787Z,100148.31
2022-12-08T04:14:25.326Z,100136.23
2022-12-08T04:19:31.614Z,100133.34
2022-12-08T04:24:37.001Z,100133.55
2022-12-08T04:29:42.524Z,100134.00
2022-12-08T04:34:47.921Z,100129.02
2022-12-08T04:39:53.874Z,100112.06
2022-12-08T04:44:59.251Z,100112.16
2022-12-08T04:50:06.174Z,100106.17
2022-12-08T04:55:12.318Z,100101.13
2022-12-08T05:00:18.692Z,100092.16
2022-12-08T05:05:24.175Z,100087.33
2022-12-08T05:10:29.621Z,100081.95
2022-12-08T05:15:35.067Z,100075.75
2022-12-08T05:20:40.445Z,100068.90
2022-12-08T05:25:45.903Z,100071.14
2022-12-08T05:30:51.422Z,100060.41
2022-12-08T05:35:56.875Z,100054.67
2022-12-08T05:41:02.555Z,100054.84
2022-12-08T05:46:09.525Z,100058.64
2022-12-08T05:51:24.608Z,100053.67
2022-12-08T05:56:30.055Z,100050.86
2022-12-08T06:01:36.361Z,100038.80
2022-12-08T06:06:41.801Z,100041.44
2022-12-08T06:11:47.336Z,100035.88
2022-12-08T06:16:52.864Z,100038.77
2022-12-08T06:21:58.445Z,100028.08
2022-12-08T06:27:03.837Z,100032.84
2022-12-08T06:32:09.375Z,100034.22
2022-12-08T06:37:14.969Z,100041.75
2022-12-08T06:42:38.407Z,100039.51
2022-12-08T06:47:44.238Z,100043.53
2022-12-08T06:53:02.689Z,100040.43
2022-12-08T06:57:57.275Z,100038.83
2022-12-08T07:03:02.891Z,100037.50
2022-12-08T07:08:09.933Z,100039.74
2022-12-08T07:13:15.371Z,100030.09
2022-12-08T07:18:20.752Z,100029.09
2022-12-08T07:23:26.221Z,100030.30
2022-12-08T07:28:33.459Z,100025.83
2022-12-08T07:33:38.845Z,100024.45
2022-12-08T07:38:45.374Z,100024.96
2022-12-08T07:43:50.804Z,100019.05
2022-12-08T07:48:57.205Z,100014.33
2022-12-08T07:54:02.591Z,100018.60
2022-12-08T07:59:07.977Z,100002.11
2022-12-08T08:04:13.389Z,100006.92
2022-12-08T08:09:18.824Z,100001.36
2022-12-08T08:14:24.203Z,100001.92
2022-12-08T08:19:29.653Z,100002.22
2022-12-08T08:24:36.483Z,100006.32
2022-12-08T08:29:42.354Z,100012.19
2022-12-08T08:34:47.813Z,99985.73
2022-12-08T08:39:53.328Z,100001.41
2022-12-08T08:44:58.727Z,99999.09
2022-12-08T08:50:04.814Z,99994.47
2022-12-08T08:55:10.891Z,99979.66
2022-12-08T09:00:17.510Z,99977.02
2022-12-08T09:05:22.958Z,99980.18
2022-12-08T09:10:29.231Z,99993.53
2022-12-08T09:15:34.666Z,99997.23
2022-12-08T09:20:40.325Z,99991.78
2022-12-08T09:25:46.834Z,99999.59
2022-12-08T09:30:53.059Z,99988.87
2022-12-08T09:36:00.031Z,99985.49
2022-12-08T09:41:08.227Z,99961.42
2022-12-08T09:46:16.945Z,99961.42
2022-12-08T09:51:25.011Z,99971.73
2022-12-08T09:56:36.578Z,99955.46
2022-12-08T10:01:42.322Z,99955.46
2022-12-08T10:07:24.363Z,99955.32
2022-12-08T10:12:49.492Z,99931.16
2022-12-08T10:17:57.785Z,99938.03
2022-12-08T10:23:15.657Z,99924.51
2022-12-08T10:28:21.109Z,99927.52
2022-12-08T10:33:26.704Z,99927.52
2022-12-08T10:38:40.653Z,99923.29
2022-12-08T10:43:49.140Z,99926.34
2022-12-08T10:49:05.794Z,99911.97
2022-12-08T10:54:32.481Z,99913.95
2022-12-08T10:59:39.411Z,99911.27
2022-12-08T11:04:46.572Z,99919.13
2022-12-08T11:09:58.332Z,99911.08
2022-12-08T11:15:05.428Z,99905.96
2022-12-08T11:20:13.845Z,99903.13
2022-12-08T11:25:27.762Z,99906.11
2022-12-08T11:30:36.239Z,99901.52
2022-12-08T11:35:44.819Z,99901.52
2022-12-08T11:40:53.244Z,99899.55
2022-12-08T11:46:21.158Z,99904.02
2022-12-08T11:51:53.357Z,99901.48
2022-12-08T11:57:01.713Z,99896.67
2022-12-08T12:02:09.525Z,99885.20
2022-12-08T12:07:39.390Z,99893.16
2022-12-08T12:13:00.387Z,99894.37
2022-12-08T12:18:16.931Z,99890.97
2022-12-08T12:23:42.978Z,99909.50
2022-12-08T12:28:54.547Z,99913.61
2022-12-08T12:34:11.777Z,99901.95
2022-12-08T12:39:20.355Z,99900.44
2022-12-08T12:44:31.757Z,99900.44
2022-12-08T12:49:44.056Z,99898.27
2022-12-08T12:54:55.817Z,99898.27
2022-12-08T13:00:04.246Z,99899.32
2022-12-08T13:05:29.120Z,99891.91
2022-12-08T13:10:37.404Z,99899.67
2022-12-08T13:15:54.012Z,99906.86
2022-12-08T13:21:08.822Z,99894.87
2022-12-08T13:26:23.474Z,99900.18
2022-12-08T13:31:51.265Z,99906.66
2022-12-08T13:37:16.683Z,99902.69
2022-12-08T13:42:40.024Z,99908.05
2022-12-08T13:48:21.763Z,99912.34
2022-12-08T13:58:33.728Z,99919.11
2022-12-08T14:09:11.361Z,99923.59
2022-12-08T14:14:46.022Z,99923.15
2022-12-08T14:19:32.079Z,99931.69
2022-12-08T14:24:37.603Z,99937.98
2022-12-08T14:29:55.208Z,99927.98
2022-12-08T14:35:12.711Z,99930.50
2022-12-08T14:40:23.491Z,99942.25
2022-12-08T14:45:28.698Z,99942.85
2022-12-08T14:50:42.924Z,99950.09
2022-12-08T14:55:50.138Z,99962.13
2022-12-08T15:00:58.593Z,99963.33
2022-12-08T15:06:09.038Z,99969.02
2022-12-08T15:11:26.233Z,99970.99
2022-12-08T15:16:34.713Z,99973.92
2022-12-08T15:21:40.236Z,99975.75
2022-12-08T15:26:48.701Z,99979.53
2022-12-08T15:31:56.793Z,99974.64
2022-12-08T15:37:02.171Z,99979.53
2022-12-08T15:42:10.623Z,99982.05
2022-12-08T15:47:24.709Z,99986.48
2022-12-08T15:52:30.311Z,99990.89
2022-12-08T15:58:17.381Z,99993.19
2022-12-08T16:03:13.163Z,99990.09
2022-12-08T16:07:53.115Z,99993.06
2022-12-08T16:13:55.453Z,99995.44
2022-12-08T16:18:25.325Z,99994.80
2022-12-08T16:23:46.159Z,100001.34
2022-12-08T16:28:53.865Z,99993.06
2022-12-08T16:33:45.550Z,99996.84
2022-12-08T16:38:50.930Z,99995.67
2022-12-08T16:43:56.569Z,99998.23
2022-12-08T16:49:02.202Z,100006.09
2022-12-08T16:54:07.647Z,100003.21
2022-12-08T16:59:13.114Z,100022.89
2022-12-08T17:04:34.166Z,100027.25
2022-12-08T17:09:28.643Z,100025.13
2022-12-08T17:14:35.582Z,100029.47
2022-12-08T17:19:41.015Z,100031.22
2022-12-08T17:24:46.951Z,100032.30
2022-12-08T17:29:52.870Z,100037.71
2022-12-08T17:34:58.496Z,100049.09
2022-12-08T17:40:04.931Z,100051.89
2022-12-08T17:45:11.255Z,100045.48
2022-12-08T17:50:16.840Z,100047.64
2022-12-08T17:55:22.293Z,100054.59
2022-12-08T18:00:27.743Z,100046.92
2022-12-08T18:05:34.830Z,100043.15
2022-12-08T18:10:40.661Z,100047.92
2022-12-08T18:15:46.034Z,100059.63
2022-12-08T18:20:51.814Z,100059.89
2022-12-08T18:25:57.294Z,100061.22
2022-12-08T18:31:03.336Z,100064.47
2022-12-08T18:36:14.225Z,100068.55
2022-12-08T18:41:24.584Z,100063.86
2022-12-08T18:46:32.000Z,100072.66
2022-12-08T18:51:38.356Z,100079.47
2022-12-08T18:56:43.879Z,100076.36
2022-12-08T19:01:49.700Z,100072.31
2022-12-08T19:06:55.661Z,100075.30
2022-12-08T19:12:01.065Z,100086.11
2022-12-08T19:17:07.219Z,100086.11
2022-12-08T19:22:13.240Z,100092.83
2022-12-08T19:27:19.029Z,100094.82
2022-12-08T19:32:24.799Z,100099.16
2022-12-08T19:37:31.481Z,100097.08
2022-12-08T19:42:55.089Z,100095.16
2022-12-08T19:48:00.545Z,100100.33
2022-12-08T19:53:08.636Z,100100.59
2022-12-08T19:58:14.577Z,100110.84
2022-12-08T20:03:23.178Z,100104.34
2022-12-08T20:08:28.875Z,100105.30
2022-12-08T20:13:44.491Z,100109.31
2022-12-08T20:18:49.876Z,100115.50
2022-12-08T20:23:55.619Z,100122.68
2022-12-08T20:29:01.147Z,100121.87
2022-12-08T20:34:06.543Z,100124.06
2022-12-08T20:39:17.964Z,100122.15
2022-12-08T20:44:23.674Z,100126.06
2022-12-08T20:49:34.393Z,100126.00
2022-12-08T20:54:37.870Z,100128.42
2022-12-08T20:59:43.618Z,100140.05
2022-12-08T21:04:49.313Z,100146.09
2022-12-08T21:09:55.129Z,100143.38
2022-12-08T21:15:00.699Z,100149.88
2022-12-08T21:20:07.993Z,100146.91
2022-12-08T21:25:13.817Z,100152.35
2022-12-08T21:30:19.686Z,100156.84
2022-12-08T21:35:25.219Z,100159.44
2022-12-08T21:40:30.876Z,100164.55
2022-12-08T21:45:36.552Z,100168.81
2022-12-08T21:50:42.026Z,100166.57
2022-12-08T21:55:47.710Z,100165.75
2022-12-08T22:00:53.428Z,100166.27
2022-12-08T22:05:59.202Z,100166.62
2022-12-08T22:11:06.094Z,100171.23
2022-12-08T22:16:15.013Z,100171.91
2022-12-08T22:21:20.766Z,100168.34
2022-12-08T22:26:26.353Z,100173.47
2022-12-08T22:31:32.240Z,100180.19
2022-12-08T22:36:38.097Z,100181.05
2022-12-08T22:41:43.520Z,100188.06
2022-12-08T22:46:49.190Z,100190.91
2022-12-08T22:51:55.365Z,100193.07
2022-12-08T22:57:00.972Z,100198.69
2022-12-08T23:02:07.195Z,100202.84
2022-12-08T23:07:13.138Z,100205.75
2022-12-08T23:12:18.835Z,100211.33
2022-12-08T23:17:24.657Z,100216.51
2022-12-08T23:22:30.377Z,100217.02
2022-12-08T23:27:37.326Z,100215.89
2022-12-08T23:32:43.381Z,100221.13
2022-12-08T23:37:49.533Z,100219.20
2022-12-08T23:42:55.010Z,100219.40
2022-12-08T23:48:00.675Z,100218.05
2022-12-08T23:53:06.345Z,100224.39
2022-12-08T23:58:11.998Z,100221.45
